createdAt,value
2023-05-09T00:00:11.384Z,48.71
2023-05-09T00:00:42.945Z,49.11
2023-05-09T00:01:14.530Z,48.71
2023-05-09T00:01:46.230Z,48.80
2023-05-09T00:02:17.924Z,48.78
2023-05-09T00:02:49.711Z,49.08
2023-05-09T00:03:21.664Z,49.01
2023-05-09T00:03:53.437Z,49.21
2023-05-09T00:04:25.572Z,49.04
2023-05-09T00:04:57.433Z,49.19
2023-05-09T00:05:29.002Z,49.14
2023-05-09T00:06:00.589Z,49.15
2023-05-09T00:06:32.209Z,48.99
2023-05-09T00:07:03.857Z,49.05
2023-05-09T00:07:35.486Z,49.08
2023-05-09T00:08:07.152Z,49.27
2023-05-09T00:08:38.696Z,48.76
2023-05-09T00:09:10.292Z,49.07
2023-05-09T00:09:41.861Z,49.08
2023-05-09T00:10:13.559Z,48.85
2023-05-09T00:10:45.133Z,48.90
2023-05-09T00:11:16.796Z,48.95
2023-05-09T00:11:48.415Z,48.82
2023-05-09T00:12:20.218Z,48.86
2023-05-09T00:12:51.862Z,49.11
2023-05-09T00:13:23.557Z,48.94
2023-05-09T00:13:55.181Z,48.97
2023-05-09T00:14:26.733Z,48.92
2023-05-09T00:14:58.467Z,49.08
2023-05-09T00:15:30.013Z,48.87
2023-05-09T00:16:01.566Z,48.99
2023-05-09T00:16:33.255Z,48.98
2023-05-09T00:17:05.022Z,48.96
2023-05-09T00:17:36.679Z,48.95
2023-05-09T00:18:08.321Z,48.93
2023-05-09T00:18:39.901Z,48.55
2023-05-09T00:19:11.455Z,48.77
2023-05-09T00:19:43.381Z,48.48
2023-05-09T00:20:14.944Z,48.57
2023-05-09T00:20:46.587Z,48.91
2023-05-09T00:21:18.173Z,48.83
2023-05-09T00:21:49.958Z,48.64
2023-05-09T00:22:21.670Z,48.48
2023-05-09T00:22:53.319Z,48.67
2023-05-09T00:23:24.967Z,48.58
2023-05-09T00:23:56.826Z,48.90
2023-05-09T00:24:28.422Z,48.51
2023-05-09T00:25:00.314Z,48.85
2023-05-09T00:25:31.925Z,48.60
2023-05-09T00:26:03.580Z,48.75
2023-05-09T00:26:35.134Z,48.51
2023-05-09T00:27:06.740Z,48.85
2023-05-09T00:27:38.295Z,48.64
2023-05-09T00:28:10.071Z,48.97
2023-05-09T00:28:41.795Z,48.88
2023-05-09T00:29:13.558Z,48.68
2023-05-09T00:29:45.322Z,48.97
2023-05-09T00:30:16.990Z,48.72
2023-05-09T00:30:48.631Z,48.55
2023-05-09T00:31:20.602Z,48.59
2023-05-09T00:31:52.474Z,48.56
2023-05-09T00:32:24.323Z,48.51
2023-05-09T00:32:56.180Z,48.83
2023-05-09T00:33:28.029Z,48.90
2023-05-09T00:33:59.794Z,48.99
2023-05-09T00:34:31.605Z,48.86
2023-05-09T00:35:03.352Z,48.77
2023-05-09T00:35:35.063Z,48.62
2023-05-09T00:36:06.905Z,48.80
2023-05-09T00:36:38.532Z,48.64
2023-05-09T00:37:10.178Z,48.53
2023-05-09T00:37:41.802Z,48.86
2023-05-09T00:38:13.506Z,48.74
2023-05-09T00:38:45.125Z,48.60
2023-05-09T00:39:16.685Z,48.72
2023-05-09T00:39:48.476Z,48.41
2023-05-09T00:40:20.119Z,48.91
2023-05-09T00:40:51.667Z,48.44
2023-05-09T00:41:23.236Z,48.91
2023-05-09T00:41:55.849Z,48.91
2023-05-09T00:42:27.496Z,48.81
2023-05-09T00:42:59.494Z,48.70
2023-05-09T00:43:31.057Z,48.71
2023-05-09T00:44:02.712Z,48.58
2023-05-09T00:44:34.279Z,48.91
2023-05-09T00:45:06.348Z,48.88
2023-05-09T00:45:37.938Z,48.87
2023-05-09T00:46:09.582Z,48.66
2023-05-09T00:46:41.244Z,48.87
2023-05-09T00:47:12.942Z,48.71
2023-05-09T00:47:44.578Z,48.90
2023-05-09T00:48:16.189Z,48.93
2023-05-09T00:48:47.827Z,48.73
2023-05-09T00:49:19.416Z,48.80
2023-05-09T00:49:51.051Z,48.76
2023-05-09T00:50:22.706Z,48.74
2023-05-09T00:50:54.285Z,48.77
2023-05-09T00:51:25.894Z,48.48
2023-05-09T00:51:57.563Z,48.46
2023-05-09T00:52:29.143Z,48.51
2023-05-09T00:53:00.752Z,48.30
2023-05-09T00:53:32.379Z,48.46
2023-05-09T00:54:04.004Z,48.72
2023-05-09T00:54:35.678Z,48.73
2023-05-09T00:55:07.488Z,48.70
2023-05-09T00:55:39.791Z,48.67
2023-05-09T00:56:11.388Z,48.76
2023-05-09T00:56:42.961Z,48.66
2023-05-09T00:57:14.521Z,48.31
2023-05-09T00:57:46.157Z,48.23
2023-05-09T00:58:17.690Z,48.34
2023-05-09T00:58:49.294Z,48.55
2023-05-09T00:59:20.841Z,48.83
2023-05-09T00:59:52.476Z,48.71
2023-05-09T01:00:24.195Z,48.64
2023-05-09T01:00:55.795Z,48.57
2023-05-09T01:01:27.500Z,48.38
2023-05-09T01:01:59.129Z,48.22
2023-05-09T01:02:30.886Z,48.63
2023-05-09T01:03:02.613Z,48.65
2023-05-09T01:03:34.350Z,48.40
2023-05-09T01:04:05.968Z,48.58
2023-05-09T01:04:37.594Z,48.67
2023-05-09T01:05:09.365Z,48.74
2023-05-09T01:05:51.711Z,48.73
2023-05-09T01:06:30.601Z,48.51
2023-05-09T01:07:06.530Z,48.42
2023-05-09T01:07:52.619Z,48.47
2023-05-09T01:08:32.984Z,48.43
2023-05-09T01:09:21.035Z,48.58
2023-05-09T01:10:07.626Z,48.23
2023-05-09T01:10:54.540Z,48.35
2023-05-09T01:11:34.769Z,48.41
2023-05-09T01:12:26.499Z,48.64
2023-05-09T01:13:14.401Z,48.60
2023-05-09T01:13:48.538Z,48.52
2023-05-09T01:14:20.250Z,48.48
2023-05-09T01:14:57.417Z,48.37
2023-05-09T01:15:49.065Z,48.49
2023-05-09T01:16:20.662Z,48.54
2023-05-09T01:17:10.718Z,48.31
2023-05-09T01:17:47.995Z,48.59
2023-05-09T01:18:21.568Z,48.41
2023-05-09T01:18:56.268Z,48.09
2023-05-09T01:19:46.160Z,48.44
2023-05-09T01:20:20.720Z,48.57
2023-05-09T01:21:00.209Z,48.33
2023-05-09T01:21:31.733Z,48.29
2023-05-09T01:22:03.991Z,48.16
2023-05-09T01:22:35.610Z,48.19
2023-05-09T01:23:25.565Z,47.95
2023-05-09T01:24:15.778Z,48.57
2023-05-09T01:25:05.680Z,48.25
2023-05-09T01:25:40.978Z,48.23
2023-05-09T01:26:35.163Z,48.16
2023-05-09T01:27:12.246Z,48.13
2023-05-09T01:28:02.842Z,48.10
2023-05-09T01:28:35.206Z,48.18
2023-05-09T01:29:14.733Z,48.33
2023-05-09T01:29:47.305Z,48.19
2023-05-09T01:30:18.941Z,48.28
2023-05-09T01:30:50.511Z,48.38
2023-05-09T01:31:22.206Z,48.08
2023-05-09T01:31:53.889Z,48.02
2023-05-09T01:32:27.000Z,48.46
2023-05-09T01:32:59.586Z,48.19
2023-05-09T01:33:31.305Z,48.41
2023-05-09T01:34:02.913Z,48.10
2023-05-09T01:34:34.465Z,48.38
2023-05-09T01:35:06.230Z,48.46
2023-05-09T01:35:37.896Z,48.36
2023-05-09T01:36:17.272Z,48.34
2023-05-09T01:36:49.021Z,48.18
2023-05-09T01:37:22.318Z,48.04
2023-05-09T01:37:53.959Z,48.00
2023-05-09T01:38:25.578Z,48.47
2023-05-09T01:38:57.291Z,48.09
2023-05-09T01:39:28.984Z,47.88
2023-05-09T01:40:00.852Z,48.10
2023-05-09T01:40:32.473Z,47.84
2023-05-09T01:41:04.129Z,47.97
2023-05-09T01:41:36.396Z,48.24
2023-05-09T01:42:08.485Z,47.93
2023-05-09T01:43:00.383Z,48.29
2023-05-09T01:43:32.061Z,48.06
2023-05-09T01:44:04.629Z,48.37
2023-05-09T01:44:37.418Z,48.10
2023-05-09T01:45:09.728Z,48.27
2023-05-09T01:45:41.610Z,48.20
2023-05-09T01:46:13.258Z,47.88
2023-05-09T01:46:44.981Z,47.89
2023-05-09T01:47:16.601Z,48.28
2023-05-09T01:47:48.503Z,48.09
2023-05-09T01:48:20.223Z,48.32
2023-05-09T01:48:51.838Z,48.24
2023-05-09T01:49:24.651Z,48.17
2023-05-09T01:49:56.285Z,48.32
2023-05-09T01:50:28.696Z,48.39
2023-05-09T01:51:00.287Z,48.11
2023-05-09T01:51:31.869Z,48.27
2023-05-09T01:52:07.429Z,48.25
2023-05-09T01:52:39.130Z,47.90
2023-05-09T01:53:10.709Z,47.85
2023-05-09T01:53:42.350Z,48.22
2023-05-09T01:54:13.897Z,48.14
2023-05-09T01:54:45.478Z,47.94
2023-05-09T01:55:17.137Z,48.20
2023-05-09T01:55:48.712Z,47.82
2023-05-09T01:56:20.260Z,47.93
2023-05-09T01:56:51.813Z,48.29
2023-05-09T01:57:23.367Z,48.09
2023-05-09T01:57:55.025Z,48.11
2023-05-09T01:58:27.088Z,48.22
2023-05-09T01:58:58.810Z,48.17
2023-05-09T01:59:31.022Z,47.89
2023-05-09T02:00:02.901Z,48.20
2023-05-09T02:00:34.944Z,48.17
2023-05-09T02:01:06.684Z,47.83
2023-05-09T02:01:38.324Z,48.12
2023-05-09T02:02:09.989Z,48.09
2023-05-09T02:02:41.820Z,48.18
2023-05-09T02:03:13.606Z,48.08
2023-05-09T02:03:45.605Z,47.90
2023-05-09T02:04:17.349Z,48.27
2023-05-09T02:04:48.968Z,48.12
2023-05-09T02:05:20.623Z,48.10
2023-05-09T02:05:52.257Z,48.21
2023-05-09T02:06:23.913Z,48.06
2023-05-09T02:06:55.456Z,48.02
2023-05-09T02:07:27.049Z,48.01
2023-05-09T02:07:59.124Z,47.91
2023-05-09T02:08:30.890Z,48.15
2023-05-09T02:09:02.503Z,47.94
2023-05-09T02:09:34.085Z,48.25
2023-05-09T02:10:05.974Z,47.80
2023-05-09T02:10:37.591Z,47.82
2023-05-09T02:11:09.206Z,48.02
2023-05-09T02:11:40.826Z,47.85
2023-05-09T02:12:12.405Z,48.05
2023-05-09T02:12:44.064Z,48.10
2023-05-09T02:13:15.697Z,48.16
2023-05-09T02:13:47.381Z,47.86
2023-05-09T02:14:18.951Z,47.77
2023-05-09T02:14:50.864Z,47.88
2023-05-09T02:15:22.482Z,47.73
2023-05-09T02:15:54.269Z,47.98
2023-05-09T02:16:25.831Z,47.68
2023-05-09T02:16:57.602Z,48.13
2023-05-09T02:17:29.451Z,47.75
2023-05-09T02:18:01.194Z,48.03
2023-05-09T02:18:32.852Z,47.99
2023-05-09T02:19:04.442Z,47.95
2023-05-09T02:19:36.053Z,47.87
2023-05-09T02:20:08.053Z,47.71
2023-05-09T02:20:40.080Z,47.94
2023-05-09T02:21:11.891Z,47.72
2023-05-09T02:21:43.531Z,47.78
2023-05-09T02:22:15.295Z,47.59
2023-05-09T02:22:46.891Z,47.90
2023-05-09T02:23:18.527Z,47.84
2023-05-09T02:23:50.149Z,47.78
2023-05-09T02:24:21.746Z,47.59
2023-05-09T02:24:53.313Z,47.59
2023-05-09T02:25:24.937Z,47.74
2023-05-09T02:25:56.628Z,47.72
2023-05-09T02:26:28.440Z,47.80
2023-05-09T02:27:00.280Z,47.82
2023-05-09T02:27:32.704Z,47.76
2023-05-09T02:28:04.304Z,48.04
2023-05-09T02:28:35.954Z,47.69
2023-05-09T02:29:07.503Z,47.87
2023-05-09T02:29:41.715Z,47.89
2023-05-09T02:30:18.189Z,47.81
2023-05-09T02:30:49.882Z,47.73
2023-05-09T02:31:22.008Z,47.79
2023-05-09T02:31:53.591Z,47.84
2023-05-09T02:32:25.831Z,47.71
2023-05-09T02:32:59.285Z,48.03
2023-05-09T02:33:30.847Z,47.58
2023-05-09T02:34:02.649Z,47.72
2023-05-09T02:34:34.238Z,47.84
2023-05-09T02:35:06.651Z,47.63
2023-05-09T02:35:38.328Z,47.66
2023-05-09T02:36:10.006Z,47.73
2023-05-09T02:36:41.562Z,47.98
2023-05-09T02:37:13.397Z,47.57
2023-05-09T02:37:45.386Z,47.73
2023-05-09T02:38:16.992Z,47.67
2023-05-09T02:38:48.707Z,47.67
2023-05-09T02:39:20.329Z,47.69
2023-05-09T02:39:51.912Z,47.54
2023-05-09T02:40:23.490Z,47.77
2023-05-09T02:40:55.224Z,48.01
2023-05-09T02:41:26.783Z,47.87
2023-05-09T02:42:04.866Z,47.86
2023-05-09T02:42:36.543Z,47.80
2023-05-09T02:43:08.112Z,47.54
2023-05-09T02:43:39.691Z,47.81
2023-05-09T02:44:11.609Z,47.64
2023-05-09T02:44:43.160Z,47.69
2023-05-09T02:45:15.010Z,47.74
2023-05-09T02:45:46.807Z,47.73
2023-05-09T02:46:18.541Z,47.71
2023-05-09T02:46:50.370Z,47.39
2023-05-09T02:47:22.031Z,47.71
2023-05-09T02:47:53.795Z,47.64
2023-05-09T02:48:25.512Z,47.46
2023-05-09T02:48:57.390Z,47.28
2023-05-09T02:49:32.285Z,47.49
2023-05-09T02:50:04.660Z,47.32
2023-05-09T02:50:36.301Z,47.52
2023-05-09T02:51:07.869Z,47.43
2023-05-09T02:51:39.609Z,47.51
2023-05-09T02:52:11.232Z,47.41
2023-05-09T02:52:42.874Z,47.57
2023-05-09T02:53:14.429Z,47.77
2023-05-09T02:53:46.066Z,47.65
2023-05-09T02:54:17.715Z,47.41
2023-05-09T02:54:49.311Z,47.54
2023-05-09T02:55:20.884Z,47.79
2023-05-09T02:55:52.645Z,47.67
2023-05-09T02:56:24.273Z,47.50
2023-05-09T02:56:58.622Z,47.67
2023-05-09T02:57:30.247Z,47.78
2023-05-09T02:58:12.141Z,47.55
2023-05-09T02:58:44.878Z,47.47
2023-05-09T02:59:17.934Z,47.88
2023-05-09T02:59:49.558Z,47.40
2023-05-09T03:00:21.188Z,47.18
2023-05-09T03:00:52.818Z,47.78
2023-05-09T03:01:24.528Z,47.52
2023-05-09T03:01:56.187Z,47.48
2023-05-09T03:02:27.956Z,47.28
2023-05-09T03:03:00.229Z,47.30
2023-05-09T03:03:31.999Z,47.52
2023-05-09T03:04:03.692Z,47.70
2023-05-09T03:04:35.285Z,47.61
2023-05-09T03:05:07.010Z,47.66
2023-05-09T03:05:38.561Z,47.76
2023-05-09T03:06:10.151Z,47.72
2023-05-09T03:06:41.790Z,47.32
2023-05-09T03:07:13.415Z,47.56
2023-05-09T03:07:45.012Z,47.38
2023-05-09T03:08:16.589Z,47.38
2023-05-09T03:08:48.244Z,47.82
2023-05-09T03:09:19.941Z,47.25
2023-05-09T03:09:51.538Z,47.42
2023-05-09T03:10:23.178Z,47.65
2023-05-09T03:10:54.845Z,47.41
2023-05-09T03:11:26.401Z,47.17
2023-05-09T03:11:58.108Z,47.42
2023-05-09T03:12:29.688Z,47.45
2023-05-09T03:13:01.521Z,47.69
2023-05-09T03:13:33.076Z,47.48
2023-05-09T03:14:04.866Z,47.77
2023-05-09T03:14:36.500Z,47.62
2023-05-09T03:15:08.436Z,47.68
2023-05-09T03:15:39.995Z,47.39
2023-05-09T03:16:14.666Z,47.75
2023-05-09T03:16:46.250Z,47.65
2023-05-09T03:17:17.905Z,47.58
2023-05-09T03:17:49.535Z,47.71
2023-05-09T03:18:21.183Z,47.88
2023-05-09T03:18:52.773Z,47.58
2023-05-09T03:19:24.366Z,47.43
2023-05-09T03:19:56.005Z,47.52
2023-05-09T03:20:27.576Z,47.23
2023-05-09T03:20:59.183Z,47.63
2023-05-09T03:21:30.751Z,47.43
2023-05-09T03:22:02.318Z,47.27
2023-05-09T03:22:33.908Z,47.51
2023-05-09T03:23:05.445Z,47.61
2023-05-09T03:23:37.079Z,47.50
2023-05-09T03:24:08.673Z,47.54
2023-05-09T03:24:40.302Z,47.54
2023-05-09T03:25:11.999Z,47.64
2023-05-09T03:25:43.697Z,47.56
2023-05-09T03:26:15.234Z,47.26
2023-05-09T03:26:46.828Z,47.66
2023-05-09T03:27:18.427Z,47.72
2023-05-09T03:27:50.028Z,47.49
2023-05-09T03:28:21.597Z,47.45
2023-05-09T03:28:53.229Z,47.72
2023-05-09T03:29:24.780Z,47.76
2023-05-09T03:29:56.373Z,47.49
2023-05-09T03:30:28.008Z,47.68
2023-05-09T03:30:59.605Z,47.50
2023-05-09T03:31:31.335Z,47.55
2023-05-09T03:32:03.049Z,47.72
2023-05-09T03:32:34.713Z,47.49
2023-05-09T03:33:06.497Z,47.53
2023-05-09T03:33:38.108Z,47.60
2023-05-09T03:34:09.676Z,47.52
2023-05-09T03:34:41.281Z,47.27
2023-05-09T03:35:13.270Z,47.41
2023-05-09T03:35:45.045Z,47.47
2023-05-09T03:36:16.650Z,47.59
2023-05-09T03:36:48.307Z,47.35
2023-05-09T03:37:19.895Z,47.61
2023-05-09T03:37:51.525Z,47.37
2023-05-09T03:38:23.236Z,47.62
2023-05-09T03:38:54.829Z,47.38
2023-05-09T03:39:26.447Z,47.47
2023-05-09T03:39:58.234Z,47.69
2023-05-09T03:40:29.788Z,47.28
2023-05-09T03:41:01.343Z,47.36
2023-05-09T03:41:32.938Z,47.46
2023-05-09T03:42:04.649Z,47.36
2023-05-09T03:42:36.240Z,47.59
2023-05-09T03:43:07.790Z,47.42
2023-05-09T03:43:39.417Z,47.31
2023-05-09T03:44:10.977Z,47.21
2023-05-09T03:44:42.535Z,47.54
2023-05-09T03:45:14.414Z,47.40
2023-05-09T03:45:46.245Z,47.65
2023-05-09T03:46:17.842Z,47.52
2023-05-09T03:46:49.472Z,47.60
2023-05-09T03:47:21.034Z,47.27
2023-05-09T03:47:52.657Z,47.50
2023-05-09T03:48:24.313Z,47.64
2023-05-09T03:48:56.005Z,47.77
2023-05-09T03:49:27.753Z,47.56
2023-05-09T03:49:59.341Z,47.79
2023-05-09T03:50:30.959Z,47.54
2023-05-09T03:51:02.508Z,47.70
2023-05-09T03:51:36.641Z,47.56
2023-05-09T03:52:08.233Z,47.78
2023-05-09T03:52:39.783Z,47.56
2023-05-09T03:53:11.365Z,47.57
2023-05-09T03:53:43.605Z,47.63
2023-05-09T03:54:15.199Z,47.67
2023-05-09T03:54:46.863Z,47.89
2023-05-09T03:55:18.486Z,47.67
2023-05-09T03:55:50.067Z,47.43
2023-05-09T03:56:21.856Z,47.50
2023-05-09T03:56:53.452Z,47.81
2023-05-09T03:57:25.088Z,47.52
2023-05-09T03:57:56.719Z,47.75
2023-05-09T03:58:28.547Z,47.93
2023-05-09T03:59:00.251Z,47.61
2023-05-09T03:59:31.838Z,47.67
2023-05-09T04:00:03.978Z,47.51
2023-05-09T04:00:35.559Z,47.56
2023-05-09T04:01:07.144Z,47.67
2023-05-09T04:01:40.081Z,47.36
2023-05-09T04:02:11.936Z,47.90
2023-05-09T04:02:43.674Z,47.53
2023-05-09T04:03:15.404Z,47.76
2023-05-09T04:03:47.034Z,47.84
2023-05-09T04:04:18.805Z,47.88
2023-05-09T04:04:50.380Z,47.93
2023-05-09T04:05:21.966Z,47.98
2023-05-09T04:05:53.684Z,47.78
2023-05-09T04:06:25.251Z,48.08
2023-05-09T04:06:56.801Z,47.77
2023-05-09T04:07:28.591Z,47.58
2023-05-09T04:08:00.173Z,48.08
2023-05-09T04:08:32.182Z,47.69
2023-05-09T04:09:03.974Z,47.68
2023-05-09T04:09:35.648Z,47.89
2023-05-09T04:10:07.678Z,47.88
2023-05-09T04:10:39.263Z,47.71
2023-05-09T04:11:10.828Z,47.52
2023-05-09T04:11:42.379Z,47.57
2023-05-09T04:12:13.939Z,47.80
2023-05-09T04:13:23.905Z,47.66
2023-05-09T04:13:55.342Z,47.89
2023-05-09T04:14:26.673Z,47.63
2023-05-09T04:14:58.199Z,47.95
2023-05-09T04:15:29.779Z,47.92
2023-05-09T04:16:01.684Z,48.08
2023-05-09T04:16:33.533Z,47.80
2023-05-09T04:17:05.481Z,47.97
2023-05-09T04:17:37.273Z,47.85
2023-05-09T04:18:08.997Z,47.92
2023-05-09T04:18:40.669Z,48.06
2023-05-09T04:19:12.266Z,47.91
2023-05-09T04:19:43.897Z,48.21
2023-05-09T04:20:15.512Z,47.96
2023-05-09T04:20:47.184Z,47.95
2023-05-09T04:21:18.910Z,48.02
2023-05-09T04:21:50.565Z,48.05
2023-05-09T04:22:22.276Z,48.13
2023-05-09T04:22:54.013Z,48.03
2023-05-09T04:23:25.578Z,47.91
2023-05-09T04:23:57.363Z,48.15
2023-05-09T04:24:28.964Z,48.13
2023-05-09T04:25:00.579Z,48.10
2023-05-09T04:25:32.271Z,48.25
2023-05-09T04:26:03.885Z,48.11
2023-05-09T04:26:35.475Z,47.95
2023-05-09T04:27:07.021Z,47.95
2023-05-09T04:27:38.612Z,47.97
2023-05-09T04:28:10.321Z,48.16
2023-05-09T04:28:41.913Z,47.89
2023-05-09T04:29:13.530Z,48.09
2023-05-09T04:29:45.160Z,48.02
2023-05-09T04:30:16.787Z,48.25
2023-05-09T04:30:48.563Z,48.35
2023-05-09T04:31:20.346Z,48.08
2023-05-09T04:31:52.173Z,48.42
2023-05-09T04:32:23.966Z,48.31
2023-05-09T04:32:55.670Z,48.27
2023-05-09T04:33:27.323Z,48.07
2023-05-09T04:33:58.894Z,48.03
2023-05-09T04:34:30.575Z,48.01
2023-05-09T04:35:02.286Z,48.33
2023-05-09T04:35:33.955Z,48.04
2023-05-09T04:36:05.974Z,48.39
2023-05-09T04:36:37.515Z,48.21
2023-05-09T04:37:09.109Z,48.22
2023-05-09T04:37:40.681Z,48.05
2023-05-09T04:38:12.301Z,48.33
2023-05-09T04:38:43.908Z,48.25
2023-05-09T04:39:15.471Z,48.25
2023-05-09T04:39:47.120Z,48.13
2023-05-09T04:40:18.826Z,48.28
2023-05-09T04:40:50.381Z,48.17
2023-05-09T04:41:22.047Z,48.33
2023-05-09T04:41:53.667Z,48.33
2023-05-09T04:42:25.259Z,48.32
2023-05-09T04:42:57.103Z,48.42
2023-05-09T04:43:28.785Z,48.18
2023-05-09T04:44:00.732Z,48.19
2023-05-09T04:44:32.400Z,48.48
2023-05-09T04:45:04.333Z,48.34
2023-05-09T04:45:36.180Z,48.38
2023-05-09T04:46:08.013Z,48.40
2023-05-09T04:46:40.004Z,48.30
2023-05-09T04:47:11.755Z,48.30
2023-05-09T04:47:43.492Z,48.30
2023-05-09T04:48:15.070Z,48.35
2023-05-09T04:48:46.656Z,48.24
2023-05-09T04:49:18.332Z,48.39
2023-05-09T04:49:49.959Z,48.48
2023-05-09T04:50:21.571Z,48.47
2023-05-09T04:50:53.286Z,48.18
2023-05-09T04:51:24.930Z,48.43
2023-05-09T04:51:56.556Z,48.30
2023-05-09T04:52:28.112Z,48.53
2023-05-09T04:52:59.842Z,48.35
2023-05-09T04:53:31.498Z,48.28
2023-05-09T04:54:03.233Z,48.42
2023-05-09T04:54:34.962Z,48.07
2023-05-09T04:55:06.746Z,48.30
2023-05-09T04:55:38.337Z,48.22
2023-05-09T04:56:10.004Z,48.31
2023-05-09T04:56:41.579Z,48.14
2023-05-09T04:57:17.911Z,48.25
2023-05-09T04:57:50.484Z,48.40
2023-05-09T04:58:22.081Z,48.50
2023-05-09T04:58:53.664Z,48.28
2023-05-09T04:59:25.306Z,48.13
2023-05-09T04:59:56.959Z,48.16
2023-05-09T05:00:28.635Z,48.19
2023-05-09T05:01:00.181Z,48.47
2023-05-09T05:01:31.983Z,48.30
2023-05-09T05:02:03.674Z,48.39
2023-05-09T05:02:35.375Z,48.46
2023-05-09T05:03:07.288Z,48.50
2023-05-09T05:03:39.077Z,48.43
2023-05-09T05:04:10.921Z,48.16
2023-05-09T05:04:42.682Z,48.26
2023-05-09T05:05:14.560Z,48.16
2023-05-09T05:05:46.391Z,48.38
2023-05-09T05:06:18.100Z,48.28
2023-05-09T05:06:49.733Z,48.20
2023-05-09T05:07:21.338Z,48.49
2023-05-09T05:07:53.018Z,48.45
2023-05-09T05:08:24.628Z,48.59
2023-05-09T05:08:56.275Z,48.35
2023-05-09T05:09:27.962Z,48.39
2023-05-09T05:09:59.598Z,48.28
2023-05-09T05:10:31.208Z,48.36
2023-05-09T05:11:02.775Z,48.55
2023-05-09T05:11:34.409Z,48.47
2023-05-09T05:12:08.374Z,48.47
2023-05-09T05:12:41.101Z,48.48
2023-05-09T05:13:12.745Z,48.46
2023-05-09T05:13:44.644Z,48.59
2023-05-09T05:14:16.253Z,48.49
2023-05-09T05:14:47.909Z,48.59
2023-05-09T05:15:19.653Z,48.33
2023-05-09T05:15:51.318Z,48.74
2023-05-09T05:16:22.953Z,48.68
2023-05-09T05:16:54.514Z,48.86
2023-05-09T05:17:26.231Z,48.30
2023-05-09T05:17:57.874Z,48.59
2023-05-09T05:18:29.542Z,48.62
2023-05-09T05:19:01.158Z,48.73
2023-05-09T05:19:32.767Z,48.34
2023-05-09T05:20:04.561Z,48.61
2023-05-09T05:20:36.203Z,48.40
2023-05-09T05:21:07.785Z,48.70
2023-05-09T05:21:39.368Z,48.57
2023-05-09T05:22:11.038Z,48.94
2023-05-09T05:22:42.706Z,48.45
2023-05-09T05:23:14.455Z,48.68
2023-05-09T05:23:46.098Z,48.67
2023-05-09T05:24:17.656Z,48.45
2023-05-09T05:24:49.238Z,48.56
2023-05-09T05:25:20.848Z,48.39
2023-05-09T05:25:52.491Z,48.62
2023-05-09T05:26:24.217Z,48.76
2023-05-09T05:26:55.875Z,48.55
2023-05-09T05:27:27.576Z,48.70
2023-05-09T05:27:59.117Z,48.48
2023-05-09T05:28:30.840Z,48.57
2023-05-09T05:29:02.425Z,48.34
2023-05-09T05:29:34.035Z,48.54
2023-05-09T05:30:05.833Z,48.58
2023-05-09T05:30:37.369Z,48.61
2023-05-09T05:31:08.956Z,48.51
2023-05-09T05:31:40.729Z,48.43
2023-05-09T05:32:12.306Z,48.77
2023-05-09T05:32:43.930Z,48.60
2023-05-09T05:33:15.748Z,48.64
2023-05-09T05:33:47.445Z,48.51
2023-05-09T05:34:19.065Z,48.71
2023-05-09T05:34:50.672Z,48.87
2023-05-09T05:35:22.248Z,48.26
2023-05-09T05:35:53.801Z,48.43
2023-05-09T05:36:25.398Z,48.90
2023-05-09T05:36:57.126Z,48.63
2023-05-09T05:37:28.718Z,48.58
2023-05-09T05:38:00.307Z,48.78
2023-05-09T05:38:31.901Z,48.39
2023-05-09T05:39:03.567Z,48.64
2023-05-09T05:39:35.192Z,48.49
2023-05-09T05:40:06.901Z,48.35
2023-05-09T05:40:38.508Z,48.39
2023-05-09T05:41:10.125Z,48.52
2023-05-09T05:41:41.978Z,48.47
2023-05-09T05:42:13.767Z,48.65
2023-05-09T05:42:45.480Z,48.79
2023-05-09T05:43:17.091Z,48.87
2023-05-09T05:43:48.670Z,48.20
2023-05-09T05:44:20.404Z,48.64
2023-05-09T05:44:52.148Z,48.90
2023-05-09T05:45:23.875Z,48.44
2023-05-09T05:45:55.599Z,48.73
2023-05-09T05:46:27.341Z,48.53
2023-05-09T05:46:58.979Z,48.25
2023-05-09T05:47:33.382Z,48.59
2023-05-09T05:48:05.497Z,48.64
2023-05-09T05:48:37.087Z,48.55
2023-05-09T05:49:08.719Z,48.66
2023-05-09T05:49:40.375Z,48.64
2023-05-09T05:50:14.686Z,48.24
2023-05-09T05:50:46.303Z,48.34
2023-05-09T05:51:17.890Z,48.03
2023-05-09T05:51:49.570Z,48.42
2023-05-09T05:52:21.165Z,48.43
2023-05-09T05:52:52.781Z,48.40
2023-05-09T05:53:24.436Z,48.16
2023-05-09T05:53:56.041Z,48.24
2023-05-09T05:54:27.645Z,48.48
2023-05-09T05:54:59.292Z,48.29
2023-05-09T05:55:30.975Z,48.49
2023-05-09T05:56:02.580Z,48.33
2023-05-09T05:56:34.142Z,48.42
2023-05-09T05:57:05.809Z,48.09
2023-05-09T05:57:37.406Z,48.38
2023-05-09T05:58:09.069Z,48.42
2023-05-09T05:58:40.684Z,48.10
2023-05-09T05:59:13.502Z,48.16
2023-05-09T05:59:47.191Z,48.46
2023-05-09T06:00:18.906Z,48.49
2023-05-09T06:00:51.374Z,48.39
2023-05-09T06:01:23.003Z,48.42
2023-05-09T06:01:54.631Z,48.41
2023-05-09T06:02:26.296Z,48.08
2023-05-09T06:02:58.174Z,48.24
2023-05-09T06:03:29.845Z,48.33
2023-05-09T06:04:01.567Z,48.24
2023-05-09T06:04:33.239Z,48.47
2023-05-09T06:05:05.192Z,48.35
2023-05-09T06:05:36.824Z,48.30
2023-05-09T06:06:08.479Z,48.63
2023-05-09T06:06:40.121Z,48.14
2023-05-09T06:07:11.916Z,48.32
2023-05-09T06:07:43.489Z,48.50
2023-05-09T06:08:15.147Z,48.40
2023-05-09T06:08:46.675Z,48.28
2023-05-09T06:09:18.266Z,48.56
2023-05-09T06:09:49.833Z,48.32
2023-05-09T06:10:21.426Z,48.64
2023-05-09T06:10:53.041Z,48.16
2023-05-09T06:11:24.681Z,48.45
2023-05-09T06:11:56.242Z,48.19
2023-05-09T06:12:28.134Z,48.48
2023-05-09T06:12:59.879Z,48.33
2023-05-09T06:13:31.450Z,48.56
2023-05-09T06:14:03.061Z,47.90
2023-05-09T06:14:34.642Z,48.26
2023-05-09T06:15:06.528Z,48.18
2023-05-09T06:15:38.154Z,48.43
2023-05-09T06:16:18.436Z,48.34
2023-05-09T06:16:51.488Z,48.36
2023-05-09T06:17:23.299Z,48.21
2023-05-09T06:17:54.983Z,48.32
2023-05-09T06:18:26.632Z,48.57
2023-05-09T06:18:58.252Z,48.57
2023-05-09T06:19:29.881Z,48.32
2023-05-09T06:20:01.471Z,48.38
2023-05-09T06:20:33.110Z,48.74
2023-05-09T06:21:04.921Z,48.54
2023-05-09T06:21:36.508Z,48.54
2023-05-09T06:22:08.198Z,48.70
2023-05-09T06:22:39.732Z,48.46
2023-05-09T06:23:11.304Z,48.10
2023-05-09T06:23:57.741Z,48.54
2023-05-09T06:24:36.295Z,48.36
2023-05-09T06:25:10.292Z,48.56
2023-05-09T06:25:42.488Z,48.59
2023-05-09T06:26:14.069Z,48.62
2023-05-09T06:26:45.655Z,48.27
2023-05-09T06:27:17.478Z,48.78
2023-05-09T06:27:49.090Z,48.66
2023-05-09T06:28:20.799Z,48.39
2023-05-09T06:28:52.473Z,48.25
2023-05-09T06:29:24.167Z,48.31
2023-05-09T06:29:55.749Z,48.64
2023-05-09T06:30:27.425Z,48.42
2023-05-09T06:30:59.113Z,48.36
2023-05-09T06:31:30.837Z,48.59
2023-05-09T06:32:02.590Z,48.47
2023-05-09T06:32:34.411Z,48.45
2023-05-09T06:33:06.100Z,48.44
2023-05-09T06:33:37.744Z,48.33
2023-05-09T06:34:09.312Z,48.51
2023-05-09T06:34:40.905Z,48.20
2023-05-09T06:35:12.615Z,48.58
2023-05-09T06:35:44.329Z,48.31
2023-05-09T06:36:16.076Z,48.73
2023-05-09T06:36:47.650Z,48.43
2023-05-09T06:37:19.265Z,48.78
2023-05-09T06:37:50.865Z,48.17
2023-05-09T06:38:22.458Z,48.70
2023-05-09T06:38:54.102Z,48.41
2023-05-09T06:39:25.696Z,48.72
2023-05-09T06:39:57.465Z,48.58
2023-05-09T06:40:31.545Z,48.33
2023-05-09T06:41:03.176Z,48.51
2023-05-09T06:41:34.812Z,48.73
2023-05-09T06:42:06.582Z,48.51
2023-05-09T06:42:38.228Z,48.35
2023-05-09T06:43:09.873Z,48.75
2023-05-09T06:43:41.618Z,48.99
2023-05-09T06:44:13.269Z,48.60
2023-05-09T06:44:44.950Z,48.67
2023-05-09T06:45:17.004Z,48.66
2023-05-09T06:45:49.214Z,48.18
2023-05-09T06:46:20.963Z,48.78
2023-05-09T06:46:52.751Z,48.41
2023-05-09T06:47:24.398Z,48.51
2023-05-09T06:47:56.054Z,48.72
2023-05-09T06:48:27.665Z,48.70
2023-05-09T06:48:59.255Z,48.66
2023-05-09T06:49:30.873Z,48.71
2023-05-09T06:50:02.478Z,48.74
2023-05-09T06:50:34.067Z,48.39
2023-05-09T06:51:05.658Z,48.52
2023-05-09T06:51:37.301Z,48.81
2023-05-09T06:52:08.990Z,48.75
2023-05-09T06:52:40.656Z,48.54
2023-05-09T06:53:12.313Z,48.47
2023-05-09T06:53:43.970Z,48.87
2023-05-09T06:54:15.516Z,48.30
2023-05-09T06:54:47.241Z,48.48
2023-05-09T06:55:18.880Z,48.75
2023-05-09T06:55:50.479Z,48.58
2023-05-09T06:56:22.077Z,48.63